Time;durP1;ratioP1;P1;durP2;ratioP2;P2;SDS_P1;SDS_P2;PMS_P1;PMS_P2;Temp;Humidity;BMP_temperature;BMP_pressure;BME280_temperature;BME280_humidity;BME280_pressure;Samples;Min_cycle;Max_cycle;Signal;HPM_P1;HPM_P2
2022/06/01 00:01:05;;;;;;;18.40;16.77;;;;;;;12.97;66.65;101269.53;5100501;28;20054;-61
2022/06/01 00:03:37;;;;;;;19.05;17.25;;;;;;;12.95;66.77;101276.47;5089039;28;20039;-61
2022/06/01 00:06:02;;;;;;;18.90;17.08;;;;;;;12.93;67.35;101271.16;5078251;28;20063;-61
2022/06/01 00:08:28;;;;;;;17.63;15.93;;;;;;;13.01;66.74;101269.88;5098707;28;20060;-61
2022/06/01 00:10:54;;;;;;;19.02;17.23;;;;;;;12.94;66.60;101275.63;5087649;28;20029;-61
2022/06/01 00:13:20;;;;;;;18.35;16.55;;;;;;;13.03;66.73;101279.63;5104274;28;20031;-61
2022/06/01 00:15:46;;;;;;;18.42;16.80;;;;;;;12.99;66.76;101281.25;5087788;28;20534;-61
2022/06/01 00:18:11;;;;;;;19.17;17.27;;;;;;;12.98;66.39;101282.38;5099065;28;20023;-61
2022/06/01 00:20:40;;;;;;;19.05;17.17;;;;;;;12.99;66.72;101278.47;5097689;28;20105;-61
2022/06/01 00:23:06;;;;;;;19.17;17.35;;;;;;;12.94;66.91;101286.78;5107040;28;20027;-61
2022/06/01 00:25:33;;;;;;;19.35;17.23;;;;;;;12.87;67.24;101283.31;5112288;28;20092;-61
2022/06/01 00:27:58;;;;;;;19.65;17.80;;;;;;;12.94;66.79;101278.41;5106340;28;20035;-61
2022/06/01 00:30:24;;;;;;;19.60;17.65;;;;;;;12.91;66.83;101283.66;5105945;28;20376;-61
2022/06/01 00:32:50;;;;;;;19.90;18.08;;;;;;;12.91;67.23;101284.50;5110617;28;20031;-61
2022/06/01 00:35:18;;;;;;;19.67;17.73;;;;;;;12.87;67.43;101283.31;5095493;28;20020;-62
2022/06/01 00:37:44;;;;;;;22.65;18.48;;;;;;;12.91;66.50;101286.44;5082127;28;20592;-61
2022/06/01 00:40:12;;;;;;;20.27;18.42;;;;;;;12.90;67.10;101288.38;5109329;28;20073;-62
2022/06/01 00:42:39;;;;;;;20.30;18.30;;;;;;;12.86;67.45;101287.22;5114025;28;20031;-61
2022/06/01 00:45:08;;;;;;;21.20;19.20;;;;;;;12.87;67.08;101282.50;5099454;28;20440;-61
2022/06/01 00:47:33;;;;;;;20.33;18.48;;;;;;;12.80;67.39;101279.88;5111166;28;20160;-61
2022/06/01 00:50:07;;;;;;;21.13;19.02;;;;;;;12.84;67.28;101285.78;5098247;28;20110;-61
2022/06/01 00:52:35;;;;;;;21.50;19.20;;;;;;;12.81;67.38;101276.00;5098800;28;20119;-61
2022/06/01 00:55:23;;;;;;;20.52;18.02;;;;;;;12.90;67.01;101284.75;5096051;28;20177;-61
2022/06/01 00:57:54;;;;;;;21.42;19.33;;;;;;;12.74;67.06;101283.72;5106948;28;20111;-60
2022/06/01 01:00:26;;;;;;;21.73;19.50;;;;;;;12.79;67.32;101283.78;5109998;28;20027;-60
2022/06/01 01:02:58;;;;;;;22.00;19.75;;;;;;;12.80;66.88;101281.81;5083662;28;20487;-60
2022/06/01 01:05:24;;;;;;;21.73;19.73;;;;;;;12.77;67.24;101272.91;5074116;28;20024;-61
2022/06/01 01:07:52;;;;;;;21.05;19.05;;;;;;;12.77;67.18;101286.81;5086170;28;20024;-60
2022/06/01 01:10:18;;;;;;;21.48;19.42;;;;;;;12.75;67.04;101282.59;5102651;28;20059;-60
2022/06/01 01:12:58;;;;;;;21.98;19.77;;;;;;;12.68;67.48;101277.22;5101800;28;20024;-60
2022/06/01 01:15:31;;;;;;;21.88;19.67;;;;;;;12.68;67.11;101270.81;5111233;28;20016;-60
2022/06/01 01:18:00;;;;;;;22.35;20.05;;;;;;;12.72;66.97;101280.31;5104596;28;20050;-60
2022/06/01 01:20:26;;;;;;;26.08;20.55;;;;;;;12.65;67.25;101274.94;5104501;28;20102;-60
2022/06/01 01:23:12;;;;;;;21.88;19.77;;;;;;;12.74;66.96;101272.56;5098643;28;20051;-60
2022/06/01 01:25:40;;;;;;;22.02;19.92;;;;;;;12.68;67.51;101277.22;5105199;28;20037;-60
2022/06/01 01:28:08;;;;;;;22.33;20.10;;;;;;;12.70;67.61;101272.25;5109878;28;20479;-60
2022/06/01 01:30:37;;;;;;;21.63;19.45;;;;;;;12.68;67.53;101268.00;5099882;28;20468;-60
2022/06/01 01:33:15;;;;;;;23.10;20.38;;;;;;;12.77;67.13;101266.47;5101124;28;20053;-60
2022/06/01 01:35:42;;;;;;;23.63;21.20;;;;;;;12.67;67.23;101264.41;5086578;28;20062;-60
2022/06/01 01:38:14;;;;;;;23.92;21.45;;;;;;;12.67;67.45;101266.34;5085826;28;20039;-60
2022/06/01 01:40:39;;;;;;;23.98;21.60;;;;;;;12.63;67.00;101266.00;5093396;28;20036;-60
2022/06/01 01:43:07;;;;;;;23.65;21.40;;;;;;;12.66;66.87;101273.84;5089252;28;20420;-61
2022/06/01 01:45:35;;;;;;;22.02;19.83;;;;;;;12.63;67.49;101273.53;5095470;28;20088;-61
2022/06/01 01:48:00;;;;;;;24.13;21.63;;;;;;;12.62;67.42;101269.91;5104540;28;20031;-61
2022/06/01 01:50:26;;;;;;;24.17;21.75;;;;;;;12.66;67.50;101275.81;5095562;28;20033;-61
2022/06/01 01:52:53;;;;;;;24.55;22.05;;;;;;;12.66;67.28;101281.38;5090933;28;20032;-61
2022/06/01 01:55:38;;;;;;;23.48;21.08;;;;;;;12.72;67.15;101277.53;5092382;28;20024;-61
2022/06/01 01:58:28;;;;;;;25.42;22.95;;;;;;;12.61;67.83;101278.50;5086261;28;20025;-61
2022/06/01 02:01:00;;;;;;;25.60;22.90;;;;;;;12.62;67.39;101282.97;5087934;28;20123;-61
2022/06/01 02:03:38;;;;;;;24.38;21.85;;;;;;;12.60;66.97;101271.25;5107284;28;20031;-61
2022/06/01 02:06:14;;;;;;;26.42;23.65;;;;;;;12.64;67.15;101272.41;5107671;28;20038;-61
2022/06/01 02:08:53;;;;;;;24.73;22.10;;;;;;;12.61;67.24;101279.31;5092182;28;20460;-61
2022/06/01 02:14:30;;;;;;;24.67;22.08;;;;;;;12.66;66.68;101270.22;5080844;28;20043;-61
2022/06/01 02:17:08;;;;;;;24.80;22.42;;;;;;;12.65;66.48;101276.88;5081333;28;20040;-61
2022/06/01 02:19:49;;;;;;;25.13;22.60;;;;;;;12.57;66.89;101272.59;5090720;28;20020;-61
2022/06/01 02:22:14;;;;;;;25.45;22.98;;;;;;;12.55;66.82;101268.41;5084817;28;20035;-61
2022/06/01 02:24:41;;;;;;;25.70;22.95;;;;;;;12.44;66.76;101273.78;5086896;28;20467;-61
2022/06/01 02:27:08;;;;;;;25.08;22.52;;;;;;;12.44;66.57;101267.38;5086172;28;20139;-61
2022/06/01 02:29:45;;;;;;;26.17;23.45;;;;;;;12.48;66.75;101274.97;5092348;28;20476;-61
2022/06/01 02:32:12;;;;;;;25.73;23.17;;;;;;;12.43;66.51;101282.41;5093913;28;20038;-61
2022/06/01 02:34:43;;;;;;;24.48;22.15;;;;;;;12.41;66.57;101288.22;5096352;28;20028;-61
2022/06/01 02:37:09;;;;;;;24.65;22.13;;;;;;;12.43;66.80;101280.47;5090425;28;20020;-61
2022/06/01 02:39:40;;;;;;;25.27;22.77;;;;;;;12.37;66.56;101287.03;5085926;28;20028;-61
2022/06/01 02:42:28;;;;;;;25.23;22.63;;;;;;;12.38;66.41;101280.41;5086996;28;20115;-61
2022/06/01 02:44:55;;;;;;;24.95;22.50;;;;;;;12.38;66.54;101283.19;5085715;28;20036;-62
2022/06/01 02:47:22;;;;;;;25.92;23.48;;;;;;;12.33;66.66;101277.53;5104471;28;20019;-61
2022/06/01 02:49:47;;;;;;;25.40;21.83;;;;;;;12.32;66.04;101277.78;5094796;28;20701;-61
2022/06/01 02:52:12;;;;;;;23.75;20.95;;;;;;;12.26;66.26;101274.94;5100982;27;20122;-61
2022/06/01 02:54:38;;;;;;;24.80;22.33;;;;;;;12.23;66.54;101272.66;5109097;28;20015;-61
2022/06/01 02:57:04;;;;;;;23.63;21.23;;;;;;;12.28;66.32;101278.28;5101087;28;20036;-61
2022/06/01 02:59:29;;;;;;;24.23;21.80;;;;;;;12.18;66.25;101267.00;5110404;28;20026;-60
2022/06/01 03:01:54;;;;;;;24.20;21.80;;;;;;;12.19;65.99;101276.19;5092487;28;20039;-61
2022/06/01 03:04:19;;;;;;;24.83;22.15;;;;;;;12.22;66.13;101270.97;5103039;28;20020;-61
2022/06/01 03:06:45;;;;;;;25.02;21.77;;;;;;;12.15;66.17;101275.03;5083516;28;20531;-61
2022/06/01 03:09:11;;;;;;;23.27;20.95;;;;;;;12.10;65.95;101274.91;5102167;28;20065;-61
2022/06/01 03:11:37;;;;;;;22.90;20.55;;;;;;;12.07;66.18;101278.22;5095119;28;20027;-61
2022/06/01 03:14:05;;;;;;;24.33;21.73;;;;;;;12.04;66.15;101274.84;5095558;28;20028;-61
2022/06/01 03:16:30;;;;;;;23.58;21.08;;;;;;;12.03;66.31;101272.31;5091059;28;20024;-61
2022/06/01 03:18:55;;;;;;;23.23;20.80;;;;;;;12.06;66.09;101280.13;5091622;28;20371;-61
2022/06/01 03:21:20;;;;;;;24.00;21.60;;;;;;;12.02;66.01;101271.47;5094970;28;20478;-61
2022/06/01 03:23:46;;;;;;;23.30;20.90;;;;;;;11.94;66.14;101273.81;5106760;28;20103;-61
2022/06/01 03:26:12;;;;;;;23.45;21.02;;;;;;;11.95;66.46;101276.38;5099480;28;20375;-61
2022/06/01 03:28:41;;;;;;;22.67;20.42;;;;;;;11.94;66.03;101282.16;5100318;28;20020;-61
2022/06/01 03:31:09;;;;;;;21.52;19.42;;;;;;;11.91;66.16;101280.75;5096577;28;20632;-61
2022/06/01 03:33:35;;;;;;;21.48;19.20;;;;;;;11.88;66.46;101270.13;5107938;28;20348;-62
2022/06/01 03:36:03;;;;;;;21.73;19.35;;;;;;;11.87;66.28;101275.91;5092992;28;20047;-61
2022/06/01 03:38:28;;;;;;;22.10;19.70;;;;;;;11.88;65.97;101284.03;5102970;28;20034;-61
2022/06/01 03:40:54;;;;;;;20.42;18.23;;;;;;;11.90;65.99;101278.19;5098271;28;20110;-61
2022/06/01 03:43:19;;;;;;;23.35;18.10;;;;;;;11.89;66.22;101282.09;5092854;28;20251;-61
2022/06/01 03:45:58;;;;;;;19.83;17.75;;;;;;;11.85;65.74;101276.19;5106692;28;20100;-61
2022/06/01 03:48:27;;;;;;;20.17;18.10;;;;;;;11.85;65.93;101281.75;5096735;28;20031;-61
2022/06/01 03:50:53;;;;;;;19.27;17.35;;;;;;;11.82;66.21;101276.63;5095515;28;20035;-61
2022/06/01 03:53:19;;;;;;;19.60;17.42;;;;;;;11.85;65.99;101281.75;5100645;28;20023;-61
2022/06/01 03:55:45;;;;;;;21.08;18.20;;;;;;;11.81;65.98;101286.09;5100240;28;20471;-61
2022/06/01 03:58:16;;;;;;;19.73;17.63;;;;;;;11.87;66.17;101292.59;5107623;28;20044;-61
2022/06/01 04:00:42;;;;;;;19.98;17.98;;;;;;;11.86;66.05;101283.41;5088190;28;20053;-61
2022/06/01 04:03:08;;;;;;;20.08;18.02;;;;;;;11.85;65.68;101287.31;5092827;28;20073;-62
2022/06/01 04:05:33;;;;;;;19.83;17.83;;;;;;;11.81;65.84;101286.09;5097034;28;20114;-62
2022/06/01 04:08:02;;;;;;;19.55;17.65;;;;;;;11.75;66.21;101289.84;5105270;28;20119;-62
2022/06/01 04:10:27;;;;;;;19.23;17.27;;;;;;;11.74;66.44;101285.41;5104401;28;20375;-61
2022/06/01 04:12:56;;;;;;;18.95;16.95;;;;;;;11.79;66.24;101289.13;5085131;28;20037;-61
2022/06/01 04:15:21;;;;;;;19.63;16.38;;;;;;;11.74;66.33;101286.22;5104725;28;20023;-61
2022/06/01 04:17:46;;;;;;;19.65;17.08;;;;;;;11.81;66.46;101288.88;5092046;28;20368;-62
2022/06/01 04:20:12;;;;;;;18.50;16.30;;;;;;;11.80;66.48;101287.19;5086537;28;20020;-60
2022/06/01 04:22:42;;;;;;;18.98;15.98;;;;;;;11.76;66.14;101291.56;5088883;28;20031;-61
2022/06/01 04:25:12;;;;;;;17.70;15.82;;;;;;;11.76;66.61;101300.75;5095983;28;20365;-61
2022/06/01 04:27:38;;;;;;;20.30;16.27;;;;;;;11.73;66.21;101292.06;5086392;28;20016;-62
2022/06/01 04:30:06;;;;;;;19.00;16.17;;;;;;;11.73;66.75;101294.84;5098306;28;20039;-62
2022/06/01 04:32:32;;;;;;;17.15;15.45;;;;;;;11.74;66.75;101290.97;5100197;28;20034;-60
2022/06/01 04:34:58;;;;;;;17.92;15.63;;;;;;;11.78;66.67;101292.97;5092811;28;20506;-61
2022/06/01 04:37:26;;;;;;;19.80;15.95;;;;;;;11.72;67.12;101288.44;5092190;28;20489;-61
2022/06/01 04:39:52;;;;;;;20.63;15.38;;;;;;;11.79;66.48;101299.41;5086820;28;20028;-60
2022/06/01 04:42:17;;;;;;;19.20;16.20;;;;;;;11.76;66.41;101303.53;5102182;28;20048;-60
2022/06/01 04:44:49;;;;;;;18.77;16.17;;;;;;;11.77;66.92;101301.59;5100509;28;20467;-61
2022/06/01 04:47:18;;;;;;;20.27;17.20;;;;;;;11.81;67.34;101294.44;5088853;28;20932;-60
2022/06/01 04:49:47;;;;;;;17.88;15.25;;;;;;;11.82;67.29;101303.63;5078254;28;20015;-60
2022/06/01 04:52:13;;;;;;;20.33;15.60;;;;;;;11.85;67.17;101301.22;5101316;28;20070;-61
2022/06/01 04:54:38;;;;;;;17.15;15.18;;;;;;;11.90;66.64;101304.06;5092537;28;20099;-60
2022/06/01 04:57:04;;;;;;;18.90;14.50;;;;;;;11.91;66.69;101307.72;5098436;28;20095;-60
2022/06/01 04:59:30;;;;;;;17.45;15.23;;;;;;;11.87;67.35;101310.16;5090507;28;20033;-61
2022/06/01 05:01:55;;;;;;;16.63;14.88;;;;;;;11.93;67.42;101311.91;5089288;28;20048;-61
2022/06/01 05:04:20;;;;;;;20.45;14.90;;;;;;;11.92;66.99;101309.41;5085862;28;20035;-61
2022/06/01 05:06:48;;;;;;;17.33;14.52;;;;;;;11.94;67.17;101310.81;5103116;28;20111;-61
2022/06/01 05:09:14;;;;;;;19.33;14.05;;;;;;;11.94;67.16;101305.25;5085467;28;20025;-61
2022/06/01 05:11:42;;;;;;;18.50;14.23;;;;;;;11.95;67.20;101306.97;5102368;28;20024;-61
2022/06/01 05:14:07;;;;;;;17.45;12.90;;;;;;;12.00;67.23;101304.25;5102604;28;20478;-60
2022/06/01 05:16:32;;;;;;;18.67;13.13;;;;;;;12.00;67.21;101309.00;5100219;28;20023;-60
2022/06/01 05:18:58;;;;;;;15.30;12.25;;;;;;;12.09;67.27;101304.69;5114433;28;20023;-60
2022/06/01 05:21:23;;;;;;;15.25;13.43;;;;;;;12.09;67.08;101299.13;5095397;28;20093;-60
2022/06/01 05:23:48;;;;;;;13.38;11.98;;;;;;;12.21;66.73;101310.16;5107997;28;20028;-62
2022/06/01 05:26:14;;;;;;;16.85;12.38;;;;;;;12.25;66.67;101303.00;5090231;28;20035;-61
2022/06/01 05:28:39;;;;;;;15.85;13.27;;;;;;;12.28;67.18;101305.28;5090624;28;20111;-61
2022/06/01 05:31:09;;;;;;;15.15;12.98;;;;;;;12.44;66.80;101307.22;5082921;28;20029;-62
2022/06/01 05:33:35;;;;;;;14.77;12.68;;;;;;;12.45;66.73;101311.66;5083361;28;20475;-61
2022/06/01 05:36:01;;;;;;;14.80;12.30;;;;;;;12.53;66.98;101305.66;5088457;28;20026;-61
2022/06/01 05:38:26;;;;;;;16.48;12.13;;;;;;;12.59;66.88;101308.56;5087275;28;20077;-61
2022/06/01 05:40:55;;;;;;;16.67;12.18;;;;;;;12.70;66.46;101310.41;5100974;28;20535;-61
2022/06/01 05:43:21;;;;;;;16.20;12.40;;;;;;;12.69;66.61;101305.91;5107673;28;20038;-62
2022/06/01 05:45:47;;;;;;;15.65;11.93;;;;;;;12.81;66.32;101312.22;5096801;28;20041;-61
2022/06/01 05:48:17;;;;;;;15.43;11.30;;;;;;;12.91;66.47;101311.50;5103158;28;20463;-61
2022/06/01 05:50:43;;;;;;;14.52;12.23;;;;;;;13.01;66.49;101312.50;5097935;28;20110;-61
2022/06/01 05:53:09;;;;;;;14.93;11.68;;;;;;;13.02;66.57;101314.19;5090721;28;20155;-61
2022/06/01 05:55:35;;;;;;;15.90;12.27;;;;;;;13.10;66.68;101318.47;5099060;28;20060;-61
2022/06/01 05:58:09;;;;;;;15.98;11.45;;;;;;;13.19;66.40;101316.91;5085160;28;20544;-61
2022/06/01 06:00:37;;;;;;;17.35;12.02;;;;;;;13.31;66.56;101315.97;5096547;28;20041;-61
2022/06/01 06:03:03;;;;;;;16.17;12.10;;;;;;;13.35;66.50;101311.56;5091583;27;20031;-62
2022/06/01 06:08:15;;;;;;;13.30;11.13;;;;;;;13.59;66.27;101328.84;5093916;28;20795;-61
2022/06/01 06:10:40;;;;;;;16.75;11.30;;;;;;;13.62;66.44;101317.16;5090126;28;20032;-61
2022/06/01 06:13:05;;;;;;;16.30;11.65;;;;;;;13.70;65.67;101320.31;5093451;28;20042;-61
2022/06/01 06:15:31;;;;;;;15.18;11.73;;;;;;;13.76;66.45;101318.44;5086358;27;20364;-61
2022/06/01 06:17:56;;;;;;;18.67;11.15;;;;;;;13.83;66.27;101316.25;5087656;28;20477;-61
2022/06/01 06:20:21;;;;;;;14.95;10.77;;;;;;;13.92;65.93;101325.84;5083689;28;20413;-61
2022/06/01 06:22:47;;;;;;;12.77;11.27;;;;;;;13.92;65.67;101322.22;5105545;28;20035;-61
2022/06/01 06:25:12;;;;;;;12.80;10.10;;;;;;;13.94;65.91;101326.41;5097901;27;20195;-61
2022/06/01 06:27:38;;;;;;;13.95;10.88;;;;;;;13.99;65.85;101337.66;5094877;28;20027;-61
2022/06/01 06:30:04;;;;;;;13.93;10.68;;;;;;;14.09;66.72;101342.47;5097086;28;20469;-61
2022/06/01 06:32:29;;;;;;;14.35;11.07;;;;;;;14.16;66.67;101345.06;5096681;28;20485;-60
2022/06/01 06:34:55;;;;;;;12.45;10.10;;;;;;;14.24;65.98;101345.41;5101310;28;20077;-60
2022/06/01 06:37:20;;;;;;;15.75;11.30;;;;;;;14.28;65.47;101348.53;5109449;28;20024;-61
2022/06/01 06:39:45;;;;;;;16.83;10.90;;;;;;;14.31;65.56;101356.38;5085770;28;20039;-60
2022/06/01 06:42:11;;;;;;;15.25;10.93;;;;;;;14.41;65.44;101362.03;5082707;28;20044;-60
2022/06/01 06:44:37;;;;;;;14.25;10.18;;;;;;;14.51;65.48;101360.47;5087963;28;20089;-60
2022/06/01 06:47:04;;;;;;;14.52;10.30;;;;;;;14.61;65.11;101363.34;5082016;28;20495;-60
2022/06/01 06:49:29;;;;;;;15.30;10.27;;;;;;;14.59;65.17;101365.56;5074325;28;20028;-61
2022/06/01 06:51:54;;;;;;;13.20;8.98;;;;;;;14.68;64.68;101366.75;5069976;28;20025;-60
2022/06/01 06:54:20;;;;;;;12.80;10.63;;;;;;;14.70;64.93;101362.59;5078215;28;20039;-60
2022/06/01 06:56:45;;;;;;;13.35;10.18;;;;;;;14.82;65.62;101375.53;5075084;28;20055;-61
2022/06/01 06:59:15;;;;;;;11.52;10.10;;;;;;;14.84;64.93;101371.31;5072647;28;20479;-61
2022/06/01 07:01:41;;;;;;;17.65;10.50;;;;;;;14.88;65.54;101375.25;5077907;28;22212;-60
2022/06/01 07:04:07;;;;;;;15.88;10.20;;;;;;;14.91;64.71;101374.72;5069839;28;20116;-60
2022/06/01 07:06:32;;;;;;;13.45;9.57;;;;;;;15.00;65.09;101377.00;5083069;28;20574;-60
2022/06/01 07:09:00;;;;;;;14.38;9.77;;;;;;;15.01;64.18;101373.09;5079765;28;20475;-62
2022/06/01 07:11:28;;;;;;;11.30;9.10;;;;;;;15.11;65.10;101375.97;5099283;28;20027;-61
2022/06/01 07:13:53;;;;;;;13.57;9.85;;;;;;;15.13;64.25;101379.31;5070879;28;20036;-61
2022/06/01 07:16:24;;;;;;;12.20;8.95;;;;;;;15.22;63.85;101388.91;5079932;28;20023;-61
2022/06/01 07:18:53;;;;;;;12.43;9.60;;;;;;;15.26;64.10;101378.84;5075297;28;20036;-61
2022/06/01 07:21:20;;;;;;;14.00;9.27;;;;;;;15.23;63.72;101379.38;5084639;28;20085;-61
2022/06/01 07:23:46;;;;;;;11.88;10.35;;;;;;;15.24;64.21;101378.28;5084682;28;20028;-62
2022/06/01 07:26:17;;;;;;;15.25;9.68;;;;;;;15.35;63.79;101381.97;5080249;28;20111;-61
2022/06/01 07:28:48;;;;;;;14.88;9.38;;;;;;;15.45;63.15;101387.63;5102557;28;20374;-61
2022/06/01 07:31:14;;;;;;;11.13;9.23;;;;;;;15.50;62.75;101387.63;5091500;28;20483;-62
2022/06/01 07:33:39;;;;;;;10.18;8.30;;;;;;;15.61;62.43;101388.53;5077546;28;20085;-62
2022/06/01 07:36:08;;;;;;;11.15;8.90;;;;;;;15.68;62.28;101389.16;5087606;28;20032;-63
2022/06/01 07:44:13;;;;;;;10.32;7.68;;;;;;;15.82;61.45;101376.31;5091897;28;20054;-62
2022/06/01 07:46:38;;;;;;;9.45;7.80;;;;;;;15.91;61.05;101385.84;5075868;28;20036;-61
2022/06/01 07:49:07;;;;;;;8.13;7.28;;;;;;;15.97;60.82;101381.13;5091579;28;20024;-62
2022/06/01 07:51:34;;;;;;;8.10;6.82;;;;;;;16.06;60.00;101378.59;5096483;28;20046;-61
2022/06/01 07:53:59;;;;;;;8.57;5.72;;;;;;;16.08;59.61;101376.38;5086994;28;20089;-61
2022/06/01 07:56:27;;;;;;;7.05;4.55;;;;;;;16.07;58.45;101383.06;5101170;28;20028;-60
2022/06/01 07:58:53;;;;;;;4.90;4.18;;;;;;;16.03;58.08;101385.59;5095481;28;20023;-62
2022/06/01 08:01:25;;;;;;;7.85;3.63;;;;;;;16.07;57.86;101385.88;5072954;28;20135;-61
2022/06/01 08:03:51;;;;;;;7.50;5.10;;;;;;;16.09;58.04;101383.66;5076071;28;20026;-60
2022/06/01 08:06:16;;;;;;;8.50;6.20;;;;;;;16.10;58.70;101385.34;5088690;28;20079;-60
2022/06/01 08:08:41;;;;;;;9.20;6.22;;;;;;;16.18;59.08;101381.97;5086169;28;20028;-60
2022/06/01 08:11:07;;;;;;;9.95;6.90;;;;;;;16.27;59.44;101385.06;5088952;28;20016;-61
2022/06/01 08:13:32;;;;;;;8.45;6.00;;;;;;;16.24;58.38;101386.47;5080792;28;20081;-60
2022/06/01 08:16:01;;;;;;;10.82;8.05;;;;;;;16.35;59.31;101374.19;5096767;28;20028;-61
2022/06/01 08:18:27;;;;;;;8.80;6.60;;;;;;;16.35;57.99;101382.56;5079787;28;20460;-60
2022/06/01 08:20:53;;;;;;;8.70;5.97;;;;;;;16.52;57.06;101387.06;5085380;28;20035;-61
2022/06/01 08:23:25;;;;;;;6.70;5.85;;;;;;;16.57;55.63;101384.25;5086214;28;20040;-61
2022/06/01 08:25:50;;;;;;;6.85;4.97;;;;;;;16.67;55.91;101385.09;5082864;28;20039;-61
2022/06/01 08:28:19;;;;;;;5.90;5.20;;;;;;;16.80;56.20;101378.09;5085315;28;20391;-60
2022/06/01 08:30:45;;;;;;;6.97;5.32;;;;;;;16.90;55.61;101380.06;5084446;28;20116;-59
2022/06/01 08:33:12;;;;;;;5.45;4.63;;;;;;;16.97;55.08;101376.94;5072295;28;20036;-60
2022/06/01 08:35:41;;;;;;;9.57;5.15;;;;;;;16.91;54.33;101376.97;5087068;28;20024;-62
2022/06/01 08:38:07;;;;;;;7.93;5.45;;;;;;;16.95;54.17;101363.22;5088688;28;20535;-61
2022/06/01 08:40:40;;;;;;;8.15;4.70;;;;;;;17.07;53.71;101365.72;5087854;28;20110;-61
2022/06/01 08:43:13;;;;;;;4.78;4.38;;;;;;;17.13;53.80;101370.19;5109597;28;20041;-61
2022/06/01 08:45:43;;;;;;;4.65;4.25;;;;;;;17.09;52.63;101363.47;5107173;28;20048;-61
2022/06/01 08:48:14;;;;;;;5.22;4.72;;;;;;;16.99;52.06;101369.13;5093405;28;20489;-60
2022/06/01 08:50:39;;;;;;;5.88;5.03;;;;;;;16.88;53.08;101368.28;5088683;28;20055;-61
2022/06/01 08:53:08;;;;;;;6.10;5.47;;;;;;;16.78;53.66;101369.16;5094652;28;20104;-60
2022/06/01 08:56:20;;;;;;;5.82;4.80;;;;;;;16.89;54.30;101376.41;5087584;28;20059;-60
2022/06/01 08:59:09;;;;;;;5.47;3.53;;;;;;;17.04;53.13;101369.09;5086067;28;20032;-61
2022/06/01 09:01:52;;;;;;;4.45;3.95;;;;;;;17.11;52.86;101370.47;5091966;28;20074;-61
2022/06/01 09:04:57;;;;;;;6.15;3.80;;;;;;;17.14;51.97;101369.06;5091653;28;20023;-61
2022/06/01 09:07:27;;;;;;;3.95;3.40;;;;;;;17.22;50.69;101379.72;5093218;28;20101;-60
2022/06/01 09:10:17;;;;;;;3.90;3.50;;;;;;;17.27;51.86;101379.69;5086882;28;20020;-60
2022/06/01 09:12:44;;;;;;;7.97;3.58;;;;;;;17.13;49.86;101376.66;5082933;28;20024;-60
2022/06/01 09:15:17;;;;;;;5.25;3.60;;;;;;;17.12;50.74;101380.56;5108319;28;20100;-60
2022/06/01 09:17:43;;;;;;;4.25;3.40;;;;;;;17.10;50.82;101371.59;5081849;28;20056;-61
2022/06/01 09:22:54;;;;;;;5.30;3.63;;;;;;;16.97;50.56;101372.19;5090701;28;20165;-60
2022/06/01 09:25:28;;;;;;;6.22;4.30;;;;;;;17.03;51.55;101375.84;5100431;28;20432;-60
2022/06/01 09:27:59;;;;;;;5.85;4.10;;;;;;;17.05;50.02;101376.38;5086592;28;20031;-60
2022/06/01 09:30:42;;;;;;;4.72;3.58;;;;;;;17.21;50.21;101382.78;5074548;28;20040;-60
2022/06/01 09:33:30;;;;;;;7.43;4.22;;;;;;;17.34;52.05;101388.66;5078076;28;20421;-60
2022/06/01 09:36:07;;;;;;;9.65;5.30;;;;;;;17.33;51.80;101388.91;5091914;28;20028;-60
2022/06/01 09:38:47;;;;;;;8.95;5.10;;;;;;;17.25;52.31;101400.72;5087166;28;20158;-60
2022/06/01 09:41:24;;;;;;;3.58;3.28;;;;;;;17.10;52.00;101398.81;5076065;28;20119;-60
2022/06/01 09:43:57;;;;;;;3.58;2.45;;;;;;;16.99;51.59;101392.38;5093005;28;20417;-60
2022/06/01 09:46:33;;;;;;;3.33;3.00;;;;;;;16.83;51.58;101394.38;5093164;28;20036;-60
2022/06/01 09:49:21;;;;;;;3.92;2.60;;;;;;;16.76;52.21;101404.19;5082664;28;20032;-60
2022/06/01 09:52:01;;;;;;;2.95;2.65;;;;;;;16.66;53.16;101393.78;5094536;28;20027;-59
2022/06/01 09:54:33;;;;;;;3.33;3.03;;;;;;;16.58;53.22;101394.34;5106676;28;20016;-60
2022/06/01 09:57:31;;;;;;;3.10;2.50;;;;;;;16.58;53.51;101405.53;5087103;28;20038;-60
2022/06/01 10:08:25;;;;;;;3.33;1.85;;;;;;;16.19;53.23;101431.28;5093664;28;20041;-60
2022/06/01 10:11:04;;;;;;;7.45;3.00;;;;;;;16.14;56.13;101434.06;5078482;28;20527;-60
2022/06/01 10:13:34;;;;;;;4.70;3.10;;;;;;;15.99;57.95;101459.22;5088084;28;20059;-60
2022/06/01 10:16:08;;;;;;;5.07;3.90;;;;;;;15.82;58.60;101462.25;5092044;28;20024;-60
2022/06/01 10:18:36;;;;;;;9.25;5.30;;;;;;;15.67;60.00;101463.00;5099467;28;20036;-60
2022/06/01 10:21:08;;;;;;;6.63;5.80;;;;;;;15.57;57.52;101469.38;5098160;28;20035;-60
2022/06/01 10:23:42;;;;;;;7.45;5.78;;;;;;;15.27;59.57;101471.97;5090543;28;20027;-60
2022/06/01 10:26:19;;;;;;;9.23;6.28;;;;;;;15.17;60.04;101469.97;5098453;28;20043;-60
2022/06/01 10:28:50;;;;;;;10.35;6.47;;;;;;;15.06;61.42;101459.81;5070991;28;20029;-60
2022/06/01 10:31:34;;;;;;;7.25;5.05;;;;;;;15.06;60.43;101455.06;5082651;28;20067;-60
2022/06/01 10:34:15;;;;;;;6.35;4.72;;;;;;;14.97;61.31;101454.72;5093511;28;20917;-60
2022/06/01 10:36:48;;;;;;;8.02;4.63;;;;;;;14.95;61.99;101458.91;5082328;28;22137;-60
2022/06/01 10:39:25;;;;;;;5.13;4.20;;;;;;;14.92;62.68;101448.25;5087183;28;20047;-60
2022/06/01 10:42:06;;;;;;;4.82;3.72;;;;;;;14.90;62.69;101447.69;5090921;28;20478;-60
2022/06/01 10:44:40;;;;;;;4.75;3.90;;;;;;;14.89;63.25;101449.59;5076672;28;20438;-61
2022/06/01 10:47:22;;;;;;;4.18;3.40;;;;;;;14.89;63.96;101438.44;5084033;28;20028;-62
2022/06/01 10:49:56;;;;;;;4.00;3.65;;;;;;;15.12;64.58;101440.00;5078130;28;20043;-61
2022/06/01 10:52:33;;;;;;;8.25;4.53;;;;;;;15.27;65.08;101453.25;5083023;28;20066;-62
2022/06/01 10:55:08;;;;;;;5.00;4.35;;;;;;;15.47;66.37;101456.16;5083699;28;20020;-62
2022/06/01 10:57:37;;;;;;;6.80;4.18;;;;;;;15.58;66.25;101459.03;5076611;28;20012;-63
2022/06/01 11:00:06;;;;;;;4.90;4.00;;;;;;;15.65;65.85;101460.50;5078365;28;20036;-63
2022/06/01 11:02:44;;;;;;;4.68;3.95;;;;;;;15.67;64.24;101455.44;5076054;28;20507;-65
2022/06/01 11:05:25;;;;;;;6.00;3.88;;;;;;;15.66;63.62;101458.53;5080826;28;20089;-65
2022/06/01 11:08:13;;;;;;;4.30;3.75;;;;;;;15.66;63.20;101453.78;5081683;28;20056;-65
2022/06/01 11:11:06;;;;;;;4.40;4.00;;;;;;;15.65;62.34;101445.66;5073800;28;20040;-65
2022/06/01 11:13:43;;;;;;;4.65;3.95;;;;;;;15.68;62.64;101450.72;5084092;28;20032;-65
2022/06/01 11:16:22;;;;;;;5.07;4.13;;;;;;;15.65;63.16;101437.28;5081093;28;20082;-65
2022/06/01 11:19:02;;;;;;;4.10;3.70;;;;;;;15.63;64.22;101443.09;5078897;28;20110;-64
2022/06/01 11:21:48;;;;;;;4.15;3.25;;;;;;;15.66;63.46;101441.75;5092750;28;20065;-62
2022/06/01 11:24:31;;;;;;;3.90;3.30;;;;;;;15.73;63.69;101444.31;5095999;28;20448;-62
2022/06/01 11:27:10;;;;;;;4.38;3.33;;;;;;;15.80;63.47;101451.34;5096919;28;20028;-64
2022/06/01 11:30:11;;;;;;;4.13;3.40;;;;;;;15.90;62.72;101454.16;5092941;28;20105;-64
2022/06/01 11:32:44;;;;;;;3.53;3.20;;;;;;;16.03;62.98;101457.56;5062346;28;20826;-64
2022/06/01 11:35:23;;;;;;;5.03;3.10;;;;;;;16.14;62.79;101459.28;5087111;28;20551;-64
2022/06/01 11:37:57;;;;;;;3.90;3.17;;;;;;;16.28;62.05;101457.63;5073161;28;20365;-62
2022/06/01 11:40:37;;;;;;;2.80;2.30;;;;;;;16.34;58.35;101450.91;5079684;28;20074;-61
2022/06/01 11:43:29;;;;;;;2.20;2.00;;;;;;;16.48;58.66;101456.00;5095378;28;20128;-61
2022/06/01 11:46:04;;;;;;;2.58;2.38;;;;;;;16.53;58.69;101462.44;5103535;28;20027;-61
2022/06/01 11:48:34;;;;;;;2.97;2.65;;;;;;;16.40;56.30;101463.81;5103223;28;20024;-63
2022/06/01 11:51:09;;;;;;;2.85;2.58;;;;;;;16.40;56.38;101457.38;5102673;28;20066;-61